createdAt,value
2023-01-29T00:00:22.196Z,101632.44
2023-01-29T00:01:24.401Z,101626.19
2023-01-29T00:02:26.655Z,101622.59
2023-01-29T00:03:29.146Z,101619.03
2023-01-29T00:04:31.822Z,101614.44
2023-01-29T00:05:35.217Z,101616.16
2023-01-29T00:06:40.579Z,101614.44
2023-01-29T00:07:42.847Z,101608.03
2023-01-29T00:08:45.335Z,101611.63
2023-01-29T00:09:47.629Z,101608.91
2023-01-29T00:10:49.872Z,101616.16
2023-01-29T00:11:53.209Z,101611.63
2023-01-29T00:12:56.716Z,101615.16
2023-01-29T00:13:59.135Z,101615.16
2023-01-29T00:15:02.177Z,101607.19
2023-01-29T00:16:06.346Z,101604.47
2023-01-29T00:17:11.955Z,101606.31
2023-01-29T00:18:14.423Z,101602.75
2023-01-29T00:19:17.619Z,101604.63
2023-01-29T00:20:20.137Z,101601.91
2023-01-29T00:21:22.892Z,101601.06
2023-01-29T00:22:25.613Z,101603.75
2023-01-29T00:23:27.759Z,101592.06
2023-01-29T00:24:30.215Z,101599.22
2023-01-29T00:25:33.617Z,101591.19
2023-01-29T00:26:35.836Z,101595.78
2023-01-29T00:27:37.989Z,101597.50
2023-01-29T00:28:40.635Z,101594.78
2023-01-29T00:29:43.808Z,101596.78
2023-01-29T00:30:46.460Z,101587.81
2023-01-29T00:31:48.731Z,101585.94
2023-01-29T00:32:51.599Z,101583.22
2023-01-29T00:33:53.897Z,101583.22
2023-01-29T00:34:56.242Z,101579.66
2023-01-29T00:35:58.612Z,101590.53
2023-01-29T00:37:04.830Z,101583.38
2023-01-29T00:38:07.285Z,101586.94
2023-01-29T00:39:11.060Z,101585.25
2023-01-29T00:40:13.756Z,101586.94
2023-01-29T00:41:39.161Z,101585.25
2023-01-29T00:43:00.096Z,101580.81
2023-01-29T00:44:21.180Z,101587.09
2023-01-29T00:45:23.514Z,101587.97
2023-01-29T00:46:25.733Z,101588.13
2023-01-29T00:47:31.141Z,101584.53
2023-01-29T00:48:34.556Z,101585.41
2023-01-29T00:49:37.087Z,101583.69
2023-01-29T00:50:39.268Z,101589.13
2023-01-29T00:51:41.521Z,101585.53
2023-01-29T00:52:43.708Z,101588.25
2023-01-29T00:53:45.975Z,101588.25
2023-01-29T00:54:48.617Z,101588.41
2023-01-29T00:55:50.950Z,101586.69
2023-01-29T00:56:53.198Z,101585.69
2023-01-29T00:57:55.436Z,101587.56
2023-01-29T00:58:57.703Z,101585.00
2023-01-29T01:00:00.744Z,101595.72
2023-01-29T01:01:03.319Z,101594.72
2023-01-29T01:02:26.104Z,101591.13
2023-01-29T01:03:29.431Z,101596.53
2023-01-29T01:04:34.100Z,101592.13
2023-01-29T01:05:39.276Z,101605.56
2023-01-29T01:06:42.931Z,101600.13
2023-01-29T01:07:50.315Z,101601.97
2023-01-29T01:09:11.681Z,101597.53
2023-01-29T01:10:20.962Z,101604.69
2023-01-29T01:11:23.746Z,101598.41
2023-01-29T01:12:27.086Z,101597.41
2023-01-29T01:13:31.534Z,101593.69
2023-01-29T01:14:36.305Z,101587.41
2023-01-29T01:15:40.252Z,101597.41
2023-01-29T01:16:42.523Z,101591.84
2023-01-29T01:17:45.088Z,101598.25
2023-01-29T01:18:49.620Z,101598.25
2023-01-29T01:19:52.728Z,101598.09
2023-01-29T01:20:59.757Z,101590.84
2023-01-29T01:22:02.284Z,101590.84
2023-01-29T01:23:05.311Z,101589.81
2023-01-29T01:24:07.632Z,101583.38
2023-01-29T01:25:10.326Z,101592.34
2023-01-29T01:26:13.651Z,101584.22
2023-01-29T01:27:16.624Z,101584.22
2023-01-29T01:28:19.074Z,101585.94
2023-01-29T01:29:21.203Z,101581.50
2023-01-29T01:30:26.152Z,101585.94
2023-01-29T01:31:28.395Z,101587.66
2023-01-29T01:32:32.078Z,101583.06
2023-01-29T01:33:34.272Z,101592.91
2023-01-29T01:34:36.621Z,101587.50
2023-01-29T01:35:39.821Z,101588.38
2023-01-29T01:36:43.394Z,101584.63
2023-01-29T01:37:47.816Z,101585.66
2023-01-29T01:38:50.451Z,101586.34
2023-01-29T01:39:57.890Z,101580.91
2023-01-29T01:41:00.023Z,101578.19
2023-01-29T01:42:10.728Z,101575.31
2023-01-29T01:43:13.861Z,101568.72
2023-01-29T01:44:53.555Z,101565.34
2023-01-29T01:45:55.745Z,101565.34
2023-01-29T01:47:01.524Z,101567.06
2023-01-29T01:48:20.984Z,101570.75
2023-01-29T01:49:24.607Z,101567.91
2023-01-29T01:50:39.248Z,101577.91
2023-01-29T01:51:45.335Z,101569.06
2023-01-29T01:52:54.755Z,101574.31
2023-01-29T01:54:07.572Z,101576.19
2023-01-29T01:55:15.100Z,101565.34
2023-01-29T01:56:23.494Z,101568.06
2023-01-29T01:57:29.984Z,101569.91
2023-01-29T01:58:36.495Z,101567.06
2023-01-29T01:59:40.854Z,101566.19
2023-01-29T02:00:43.658Z,101571.59
2023-01-29T02:01:51.104Z,101571.59
2023-01-29T02:03:13.280Z,101571.59
2023-01-29T02:04:41.307Z,101573.47
2023-01-29T02:06:02.199Z,101566.19
2023-01-29T02:07:27.586Z,101559.03
2023-01-29T02:09:24.170Z,101558.19
2023-01-29T02:10:29.703Z,101553.94
2023-01-29T02:11:31.971Z,101551.38
2023-01-29T02:12:34.326Z,101554.94
2023-01-29T02:13:36.513Z,101540.53
2023-01-29T02:14:41.657Z,101548.84
2023-01-29T02:15:48.920Z,101549.69
2023-01-29T02:16:51.519Z,101543.53
2023-01-29T02:17:53.883Z,101546.41
2023-01-29T02:18:56.549Z,101551.69
2023-01-29T02:20:21.531Z,101550.00
2023-01-29T02:22:03.688Z,101549.44
2023-01-29T02:23:10.805Z,101547.72
2023-01-29T02:24:53.365Z,101548.59
2023-01-29T02:26:28.820Z,101548.03
2023-01-29T02:28:03.738Z,101549.03
2023-01-29T02:29:27.115Z,101551.03
2023-01-29T02:30:45.999Z,101548.66
2023-01-29T02:32:14.598Z,101547.81
2023-01-29T02:33:39.528Z,101550.97
2023-01-29T02:35:32.155Z,101544.72
2023-01-29T02:36:35.033Z,101556.72
2023-01-29T02:37:46.376Z,101546.88
2023-01-29T02:39:16.783Z,101553.44
2023-01-29T02:40:30.400Z,101551.03
2023-01-29T02:41:42.314Z,101554.75
2023-01-29T02:42:57.223Z,101556.75
2023-01-29T02:44:12.439Z,101557.91
2023-01-29T02:45:35.260Z,101555.34
2023-01-29T02:47:00.429Z,101548.06
2023-01-29T02:48:08.865Z,101553.81
2023-01-29T02:49:29.803Z,101552.97
2023-01-29T02:50:42.723Z,101551.25
2023-01-29T02:51:51.626Z,101552.41
2023-01-29T02:53:18.210Z,101550.69
2023-01-29T02:54:25.170Z,101555.44
2023-01-29T02:55:31.551Z,101554.72
2023-01-29T02:56:44.354Z,101562.00
2023-01-29T02:57:51.012Z,101555.56
2023-01-29T02:59:05.169Z,101558.56
2023-01-29T03:00:16.224Z,101550.59
2023-01-29T03:01:26.819Z,101554.31
2023-01-29T03:02:41.725Z,101557.19
2023-01-29T03:03:49.730Z,101574.44
2023-01-29T03:05:01.178Z,101565.47
2023-01-29T03:06:38.753Z,101554.75
2023-01-29T03:07:51.886Z,101559.47
2023-01-29T03:09:20.697Z,101560.47
2023-01-29T03:10:37.245Z,101564.19
2023-01-29T03:11:46.305Z,101571.47
2023-01-29T03:12:59.892Z,101563.63
2023-01-29T03:14:13.383Z,101559.91
2023-01-29T03:15:25.325Z,101558.19
2023-01-29T03:16:52.148Z,101559.22
2023-01-29T03:18:06.149Z,101559.22
2023-01-29T03:19:17.399Z,101555.81
2023-01-29T03:20:27.364Z,101558.66
2023-01-29T03:21:53.168Z,101555.97
2023-01-29T03:23:01.966Z,101550.69
2023-01-29T03:24:27.773Z,101550.84
2023-01-29T03:25:53.211Z,101557.25
2023-01-29T03:27:28.147Z,101554.56
2023-01-29T03:28:53.322Z,101555.56
2023-01-29T03:30:16.469Z,101551.28
2023-01-29T03:31:45.776Z,101553.16
2023-01-29T03:32:52.998Z,101557.53
2023-01-29T03:34:34.784Z,101557.69
2023-01-29T03:35:48.657Z,101552.59
2023-01-29T03:36:57.949Z,101555.13
2023-01-29T03:38:01.313Z,101562.56
2023-01-29T03:39:09.621Z,101562.56
2023-01-29T03:40:14.569Z,101556.44
2023-01-29T03:41:35.971Z,101552.75
2023-01-29T03:42:50.736Z,101548.47
2023-01-29T03:44:14.472Z,101540.19
2023-01-29T03:45:46.159Z,101546.59
2023-01-29T03:47:04.885Z,101552.19
2023-01-29T03:48:12.326Z,101540.63
2023-01-29T03:49:39.653Z,101538.06
2023-01-29T03:51:14.309Z,101547.19
2023-01-29T03:52:29.059Z,101541.94
2023-01-29T03:53:50.378Z,101543.78
2023-01-29T03:55:01.559Z,101544.78
2023-01-29T03:56:15.592Z,101546.66
2023-01-29T03:57:34.269Z,101552.19
2023-01-29T03:58:44.112Z,101545.09
2023-01-29T04:00:02.128Z,101548.81
2023-01-29T04:01:40.656Z,101545.38
2023-01-29T04:03:11.969Z,101554.50
2023-01-29T04:04:17.286Z,101552.94
2023-01-29T04:05:30.680Z,101544.97
2023-01-29T04:06:48.095Z,101549.53
2023-01-29T04:07:58.726Z,101546.97
2023-01-29T04:09:10.172Z,101540.00
2023-01-29T04:10:22.407Z,101533.88
2023-01-29T04:11:25.884Z,101532.16
2023-01-29T04:12:38.797Z,101537.56
2023-01-29T04:13:41.298Z,101534.19
2023-01-29T04:14:46.012Z,101526.22
2023-01-29T04:15:54.362Z,101528.91
2023-01-29T04:17:16.039Z,101514.66
2023-01-29T04:18:31.777Z,101525.63
2023-01-29T04:19:45.852Z,101523.09
2023-01-29T04:20:48.534Z,101519.66
2023-01-29T04:22:02.103Z,101517.78
2023-01-29T04:23:28.383Z,101519.81
2023-01-29T04:24:32.358Z,101525.22
2023-01-29T04:25:45.577Z,101511.84
2023-01-29T04:27:16.106Z,101514.56
2023-01-29T04:28:41.981Z,101516.53
2023-01-29T04:30:05.995Z,101519.25
2023-01-29T04:31:13.736Z,101508.72
2023-01-29T04:32:25.139Z,101496.88
2023-01-29T04:33:54.411Z,101504.16
2023-01-29T04:35:15.968Z,101495.19
2023-01-29T04:37:02.722Z,101497.19
2023-01-29T04:38:44.661Z,101499.88
2023-01-29T04:39:56.551Z,101492.75
2023-01-29T04:41:05.354Z,101499.16
2023-01-29T04:42:36.709Z,101502.75
2023-01-29T04:43:46.318Z,101500.19
2023-01-29T04:44:51.435Z,101501.19
2023-01-29T04:46:18.029Z,101494.06
2023-01-29T04:47:52.185Z,101485.09
2023-01-29T04:49:12.937Z,101489.63
2023-01-29T04:50:29.554Z,101483.38
2023-01-29T04:51:44.081Z,101488.94
2023-01-29T04:52:56.622Z,101483.69
2023-01-29T04:54:19.302Z,101479.13
2023-01-29T04:55:36.709Z,101475.84
2023-01-29T04:56:58.315Z,101477.41
2023-01-29T04:58:12.476Z,101476.56
2023-01-29T04:59:30.856Z,101470.28
2023-01-29T05:00:42.890Z,101465.75
2023-01-29T05:01:46.904Z,101465.16
2023-01-29T05:02:49.944Z,101464.19
2023-01-29T05:03:55.406Z,101464.34
2023-01-29T05:04:59.237Z,101457.19
2023-01-29T05:06:02.683Z,101459.91
2023-01-29T05:07:09.005Z,101461.75
2023-01-29T05:08:14.308Z,101465.31
2023-01-29T05:09:17.897Z,101455.50
2023-01-29T05:10:22.632Z,101458.19
2023-01-29T05:11:25.177Z,101460.91
2023-01-29T05:12:30.445Z,101464.44
2023-01-29T05:13:39.483Z,101455.34
2023-01-29T05:14:44.585Z,101453.63
2023-01-29T05:15:57.945Z,101454.50
2023-01-29T05:17:05.523Z,101458.03
2023-01-29T05:18:09.188Z,101454.34
2023-01-29T05:19:14.064Z,101451.78
2023-01-29T05:20:17.488Z,101457.06
2023-01-29T05:21:23.148Z,101453.63
2023-01-29T05:22:26.764Z,101448.22
2023-01-29T05:23:28.986Z,101448.22
2023-01-29T05:24:31.308Z,101446.38
2023-01-29T05:25:33.710Z,101446.53
2023-01-29T05:26:55.498Z,101435.72
2023-01-29T05:28:16.822Z,101449.09
2023-01-29T05:29:19.179Z,101445.50
2023-01-29T05:30:22.820Z,101453.63
2023-01-29T05:31:25.199Z,101451.78
2023-01-29T05:32:27.688Z,101449.25
2023-01-29T05:33:31.488Z,101445.50
2023-01-29T05:34:34.389Z,101450.91
2023-01-29T05:35:36.629Z,101446.53
2023-01-29T05:36:39.121Z,101451.94
2023-01-29T05:37:41.763Z,101450.91
2023-01-29T05:38:44.014Z,101441.13
2023-01-29T05:39:46.171Z,101442.97
2023-01-29T05:40:48.816Z,101446.66
2023-01-29T05:41:51.042Z,101444.81
2023-01-29T05:42:53.245Z,101446.66
2023-01-29T05:43:55.442Z,101444.97
2023-01-29T05:44:57.704Z,101442.28
2023-01-29T05:46:01.879Z,101442.38
2023-01-29T05:47:04.170Z,101435.28
2023-01-29T05:48:07.505Z,101433.59
2023-01-29T05:49:09.867Z,101439.00
2023-01-29T05:50:15.469Z,101429.88
2023-01-29T05:51:18.081Z,101436.28
2023-01-29T05:52:20.269Z,101431.72
2023-01-29T05:53:22.595Z,101435.41
2023-01-29T05:54:24.855Z,101434.44
2023-01-29T05:55:29.719Z,101430.88
2023-01-29T05:56:32.183Z,101433.44
2023-01-29T05:57:34.447Z,101431.56
2023-01-29T05:58:37.011Z,101438.69
2023-01-29T05:59:39.230Z,101439.56
2023-01-29T06:00:41.665Z,101443.09
2023-01-29T06:01:43.898Z,101448.53
2023-01-29T06:02:46.557Z,101447.53
2023-01-29T06:03:48.997Z,101443.84
2023-01-29T06:04:55.238Z,101445.50
2023-01-29T06:05:57.447Z,101444.53
2023-01-29T06:06:59.693Z,101449.94
2023-01-29T06:08:01.877Z,101451.63
2023-01-29T06:09:04.238Z,101448.94
2023-01-29T06:10:06.812Z,101453.19
2023-01-29T06:11:11.504Z,101442.38
2023-01-29T06:12:15.527Z,101447.78
2023-01-29T06:13:17.720Z,101446.06
2023-01-29T06:14:21.167Z,101445.94
2023-01-29T06:15:24.965Z,101444.94
2023-01-29T06:16:27.238Z,101455.75
2023-01-29T06:17:31.009Z,101455.75
2023-01-29T06:18:33.563Z,101464.75
2023-01-29T06:19:35.787Z,101468.44
2023-01-29T06:20:37.983Z,101467.44
2023-01-29T06:21:40.176Z,101473.69
2023-01-29T06:22:42.351Z,101472.72
2023-01-29T06:23:45.495Z,101477.25
2023-01-29T06:24:48.379Z,101476.25
2023-01-29T06:25:53.513Z,101478.97
2023-01-29T06:26:56.086Z,101477.25
2023-01-29T06:27:59.571Z,101481.66
2023-01-29T06:29:03.155Z,101484.22
2023-01-29T06:30:06.777Z,101477.97
2023-01-29T06:31:27.465Z,101482.53
2023-01-29T06:32:33.020Z,101484.38
2023-01-29T06:33:35.607Z,101484.22
2023-01-29T06:34:38.083Z,101485.09
2023-01-29T06:35:40.822Z,101487.81
2023-01-29T06:36:43.216Z,101485.94
2023-01-29T06:37:45.491Z,101481.53
2023-01-29T06:38:48.959Z,101484.94
2023-01-29T06:39:51.364Z,101477.81
2023-01-29T06:40:54.684Z,101474.97
2023-01-29T06:41:57.821Z,101479.38
2023-01-29T06:43:01.083Z,101484.63
2023-01-29T06:44:03.426Z,101483.78
2023-01-29T06:45:06.090Z,101489.06
2023-01-29T06:46:08.909Z,101478.22
2023-01-29T06:47:11.073Z,101482.81
2023-01-29T06:48:13.327Z,101486.34
2023-01-29T06:49:15.507Z,101491.47
2023-01-29T06:50:19.056Z,101491.47
2023-01-29T06:51:23.149Z,101496.88
2023-01-29T06:52:29.173Z,101495.03
2023-01-29T06:53:33.041Z,101501.28
2023-01-29T06:54:35.331Z,101517.25
2023-01-29T06:55:37.985Z,101519.09
2023-01-29T06:56:40.187Z,101513.69
2023-01-29T06:57:42.670Z,101518.09
2023-01-29T06:58:44.837Z,101528.78
2023-01-29T06:59:48.250Z,101522.38
2023-01-29T07:00:50.508Z,101523.22
2023-01-29T07:01:52.734Z,101519.50
2023-01-29T07:02:56.350Z,101526.47
2023-01-29T07:03:58.873Z,101530.06
2023-01-29T07:05:02.377Z,101532.78
2023-01-29T07:06:05.538Z,101535.31
2023-01-29T07:07:13.437Z,101537.88
2023-01-29T07:08:16.982Z,101544.00
2023-01-29T07:09:19.866Z,101544.00
2023-01-29T07:10:22.118Z,101539.44
2023-01-29T07:11:24.663Z,101543.72
2023-01-29T07:12:26.969Z,101546.41
2023-01-29T07:13:29.625Z,101549.69
2023-01-29T07:14:31.824Z,101546.97
2023-01-29T07:15:35.877Z,101543.25
2023-01-29T07:16:39.699Z,101542.25
2023-01-29T07:17:42.024Z,101549.38
2023-01-29T07:18:44.217Z,101550.09
2023-01-29T07:19:46.440Z,101551.78
2023-01-29T07:20:48.651Z,101563.34
2023-01-29T07:21:50.912Z,101558.75
2023-01-29T07:22:53.074Z,101554.22
2023-01-29T07:23:55.401Z,101557.59
2023-01-29T07:24:57.763Z,101555.63
2023-01-29T07:26:04.729Z,101547.50
2023-01-29T07:27:06.995Z,101544.94
2023-01-29T07:28:09.190Z,101536.66
2023-01-29T07:29:11.786Z,101538.38
2023-01-29T07:30:14.413Z,101532.66
2023-01-29T07:31:17.014Z,101533.66
2023-01-29T07:32:19.336Z,101535.38
2023-01-29T07:33:21.505Z,101529.78
2023-01-29T07:34:25.050Z,101525.25
2023-01-29T07:35:27.237Z,101530.66
2023-01-29T07:36:29.975Z,101530.50
2023-01-29T07:37:32.174Z,101534.06
2023-01-29T07:38:34.744Z,101533.91
2023-01-29T07:39:38.293Z,101529.34
2023-01-29T07:40:40.438Z,101522.22
2023-01-29T07:41:43.194Z,101529.34
2023-01-29T07:42:51.800Z,101530.19
2023-01-29T07:43:54.624Z,101531.91
2023-01-29T07:44:56.843Z,101537.31
2023-01-29T07:46:03.331Z,101537.91
2023-01-29T07:47:05.620Z,101532.63
2023-01-29T07:48:12.371Z,101526.19
2023-01-29T07:49:14.747Z,101527.06
2023-01-29T07:50:17.287Z,101522.47
2023-01-29T07:51:21.490Z,101523.19
2023-01-29T07:52:23.988Z,101518.63
2023-01-29T07:53:31.061Z,101514.91
2023-01-29T07:54:33.309Z,101511.22
2023-01-29T07:55:35.516Z,101505.63
2023-01-29T07:56:37.812Z,101503.75
2023-01-29T07:57:40.037Z,101500.22
2023-01-29T07:58:42.669Z,101491.09
2023-01-29T07:59:44.877Z,101494.50
2023-01-29T08:00:47.738Z,101480.78
2023-01-29T08:01:50.346Z,101493.34
2023-01-29T08:02:52.561Z,101484.38
2023-01-29T08:03:56.653Z,101484.22
2023-01-29T08:04:58.836Z,101487.75
2023-01-29T08:06:01.109Z,101485.91
2023-01-29T08:07:05.489Z,101487.63
2023-01-29T08:08:08.145Z,101479.34
2023-01-29T08:09:10.974Z,101473.78
2023-01-29T08:10:16.630Z,101484.44
2023-01-29T08:11:19.387Z,101481.59
2023-01-29T08:12:21.646Z,101475.16
2023-01-29T08:13:23.781Z,101475.88
2023-01-29T08:14:26.058Z,101480.31
2023-01-29T08:15:30.453Z,101474.72
2023-01-29T08:16:34.016Z,101478.00
2023-01-29T08:17:43.325Z,101471.41
2023-01-29T08:18:52.937Z,101471.25
2023-01-29T08:19:55.403Z,101462.09
2023-01-29T08:21:01.949Z,101459.25
2023-01-29T08:22:05.257Z,101455.38
2023-01-29T08:23:15.488Z,101455.22
2023-01-29T08:24:20.269Z,101452.34
2023-01-29T08:25:24.084Z,101455.78
2023-01-29T08:26:27.425Z,101458.31
2023-01-29T08:27:31.203Z,101448.16
2023-01-29T08:28:33.600Z,101447.88
2023-01-29T08:29:36.103Z,101451.25
2023-01-29T08:30:42.013Z,101459.41
2023-01-29T08:31:47.564Z,101446.38
2023-01-29T08:32:49.725Z,101449.81
2023-01-29T08:33:55.408Z,101455.63
2023-01-29T08:34:57.718Z,101446.44
2023-01-29T08:35:59.892Z,101452.59
2023-01-29T08:37:03.379Z,101452.41
2023-01-29T08:38:05.946Z,101459.56
2023-01-29T08:39:08.187Z,101453.81
2023-01-29T08:40:13.543Z,101462.66
2023-01-29T08:41:17.205Z,101461.66
2023-01-29T08:42:19.556Z,101462.50
2023-01-29T08:43:21.740Z,101459.78
2023-01-29T08:44:24.404Z,101468.63
2023-01-29T08:45:28.832Z,101467.59
2023-01-29T08:46:31.764Z,101470.31
2023-01-29T08:47:33.913Z,101471.19
2023-01-29T08:48:36.282Z,101471.84
2023-01-29T08:49:38.534Z,101474.56
2023-01-29T08:50:40.767Z,101474.56
2023-01-29T08:51:42.933Z,101476.28
2023-01-29T08:52:46.126Z,101471.72
2023-01-29T08:53:49.145Z,101477.00
2023-01-29T08:54:52.201Z,101476.00
2023-01-29T08:55:54.990Z,101484.97
2023-01-29T08:56:58.179Z,101479.53
2023-01-29T08:58:00.399Z,101481.25
2023-01-29T08:59:02.557Z,101485.69
2023-01-29T09:00:07.413Z,101476.50
2023-01-29T09:01:11.635Z,101476.38
2023-01-29T09:02:14.718Z,101470.78
2023-01-29T09:03:16.948Z,101468.06
2023-01-29T09:04:23.426Z,101468.06
2023-01-29T09:05:25.883Z,101469.63
2023-01-29T09:06:28.553Z,101464.88
2023-01-29T09:07:30.925Z,101462.16
2023-01-29T09:08:33.160Z,101454.88
2023-01-29T09:09:35.355Z,101456.59
2023-01-29T09:10:37.791Z,101446.75
2023-01-29T09:11:41.086Z,101457.28
2023-01-29T09:12:43.455Z,101462.53
2023-01-29T09:13:45.695Z,101462.38
2023-01-29T09:14:47.930Z,101473.09
2023-01-29T09:15:51.440Z,101472.06
2023-01-29T09:16:53.742Z,101469.22
2023-01-29T09:17:56.004Z,101470.75
2023-01-29T09:18:58.141Z,101472.44
2023-01-29T09:20:00.392Z,101461.44
2023-01-29T09:21:03.367Z,101464.84
2023-01-29T09:22:05.682Z,101461.13
2023-01-29T09:23:09.972Z,101462.66
2023-01-29T09:24:12.299Z,101456.25
2023-01-29T09:25:15.332Z,101449.81
2023-01-29T09:26:18.701Z,101443.22
2023-01-29T09:27:20.936Z,101446.75
2023-01-29T09:28:23.391Z,101440.16
2023-01-29T09:29:25.590Z,101441.88
2023-01-29T09:30:28.862Z,101449.69
2023-01-29T09:31:31.230Z,101451.56
2023-01-29T09:33:57.509Z,101454.78
2023-01-29T09:35:02.847Z,101459.38
2023-01-29T09:36:05.418Z,101468.88
2023-01-29T09:37:07.756Z,101464.34
2023-01-29T09:38:10.724Z,101464.16
2023-01-29T09:39:13.208Z,101458.75
2023-01-29T09:40:29.195Z,101460.28
2023-01-29T09:41:44.203Z,101456.56
2023-01-29T09:42:55.121Z,101458.09
2023-01-29T09:44:02.666Z,101463.38
2023-01-29T09:45:14.138Z,101454.19
2023-01-29T09:46:30.823Z,101454.19
2023-01-29T09:47:35.861Z,101448.63
2023-01-29T09:48:42.585Z,101445.72
2023-01-29T09:49:52.706Z,101432.84
2023-01-29T09:50:58.981Z,101435.53
2023-01-29T09:52:09.998Z,101438.13
2023-01-29T09:53:39.632Z,101436.94
2023-01-29T09:55:05.333Z,101425.91
2023-01-29T09:56:20.399Z,101419.47
2023-01-29T09:57:34.693Z,101418.31
2023-01-29T09:58:48.503Z,101420.00
2023-01-29T09:59:50.823Z,101414.41
2023-01-29T10:01:12.316Z,101418.66
2023-01-29T10:02:28.123Z,101419.34
2023-01-29T10:03:42.854Z,101420.03
2023-01-29T10:05:10.996Z,101421.88
2023-01-29T10:06:32.370Z,101414.44
2023-01-29T10:08:05.589Z,101411.38
2023-01-29T10:09:26.940Z,101416.66
2023-01-29T10:10:40.483Z,101419.38
2023-01-29T10:12:05.750Z,101418.34
2023-01-29T10:14:01.215Z,101418.19
2023-01-29T10:15:42.402Z,101411.91
2023-01-29T10:16:58.566Z,101415.63
2023-01-29T10:18:23.535Z,101423.63
2023-01-29T10:19:43.457Z,101423.63
2023-01-29T10:21:04.950Z,101430.59
2023-01-29T10:22:39.787Z,101431.47
2023-01-29T10:23:58.049Z,101430.47
2023-01-29T10:25:11.710Z,101426.88
2023-01-29T10:26:14.082Z,101424.16
2023-01-29T10:27:20.135Z,101428.56
2023-01-29T10:28:46.725Z,101424.16
2023-01-29T10:29:52.895Z,101430.47
2023-01-29T10:31:05.990Z,101432.00
2023-01-29T10:32:16.063Z,101423.84
2023-01-29T10:33:49.344Z,101422.81
2023-01-29T10:35:02.526Z,101424.69
2023-01-29T10:36:12.278Z,101427.22
2023-01-29T10:37:24.362Z,101417.22
2023-01-29T10:38:37.170Z,101417.38
2023-01-29T10:39:39.598Z,101417.38
2023-01-29T10:40:51.755Z,101418.25
2023-01-29T10:42:06.275Z,101411.09
2023-01-29T10:43:23.549Z,101409.06
2023-01-29T10:44:52.095Z,101409.06
2023-01-29T10:45:54.228Z,101403.47
2023-01-29T10:47:06.093Z,101407.03
2023-01-29T10:48:36.626Z,101402.47
2023-01-29T10:50:06.541Z,101401.41
2023-01-29T10:51:11.018Z,101396.00
2023-01-29T10:52:19.022Z,101396.69
2023-01-29T10:53:44.922Z,101385.13
2023-01-29T10:55:00.633Z,101382.09
2023-01-29T10:56:23.753Z,101372.91
2023-01-29T10:57:51.131Z,101362.19
2023-01-29T10:59:03.444Z,101362.91
2023-01-29T11:00:18.387Z,101363.91
2023-01-29T11:01:20.687Z,101361.19
2023-01-29T11:02:23.070Z,101353.75
2023-01-29T11:03:29.459Z,101355.41
2023-01-29T11:04:32.590Z,101350.84
2023-01-29T11:05:44.069Z,101353.56
2023-01-29T11:06:46.895Z,101355.28
2023-01-29T11:07:53.055Z,101351.69
2023-01-29T11:09:11.038Z,101350.69
2023-01-29T11:10:20.068Z,101348.66
2023-01-29T11:11:34.015Z,101341.34
2023-01-29T11:12:38.959Z,101340.31
2023-01-29T11:13:55.907Z,101340.16
2023-01-29T11:15:21.533Z,101328.28
2023-01-29T11:16:24.041Z,101329.09
2023-01-29T11:17:26.596Z,101326.38
2023-01-29T11:18:58.628Z,101325.19
2023-01-29T11:20:00.868Z,101324.19
2023-01-29T11:21:04.576Z,101330.31
2023-01-29T11:22:16.783Z,101326.56
2023-01-29T11:23:28.512Z,101326.38
2023-01-29T11:24:30.997Z,101320.63
2023-01-29T11:25:33.256Z,101325.38
2023-01-29T11:26:39.909Z,101316.91
2023-01-29T11:27:47.671Z,101317.75
2023-01-29T11:28:51.534Z,101301.25
2023-01-29T11:29:56.181Z,101303.81
2023-01-29T11:30:58.543Z,101311.63
2023-01-29T11:32:05.590Z,101302.47
2023-01-29T11:33:22.458Z,101299.56
2023-01-29T11:34:27.812Z,101301.28
2023-01-29T11:35:30.783Z,101296.50
2023-01-29T11:36:38.260Z,101295.31
2023-01-29T11:37:44.198Z,101291.56
2023-01-29T11:38:46.424Z,101298.56
2023-01-29T11:39:48.776Z,101292.09
2023-01-29T11:40:51.469Z,101293.78
2023-01-29T11:42:00.641Z,101291.75
2023-01-29T11:43:27.625Z,101295.16
2023-01-29T11:44:42.419Z,101291.38
2023-01-29T11:45:45.741Z,101304.97
2023-01-29T11:46:49.794Z,101299.41
2023-01-29T11:47:56.845Z,101299.22
2023-01-29T11:49:09.795Z,101306.38
2023-01-29T11:50:24.328Z,101305.31
2023-01-29T11:51:29.328Z,101306.00
2023-01-29T11:52:39.229Z,101305.00
2023-01-29T11:53:55.242Z,101309.44
2023-01-29T11:55:02.667Z,101302.94
2023-01-29T11:56:35.198Z,101293.59
2023-01-29T11:57:43.551Z,101297.19
2023-01-29T11:58:48.765Z,101295.13
2023-01-29T11:59:52.992Z,101290.34
2023-01-29T12:00:58.112Z,101298.53
2023-01-29T12:02:13.883Z,101288.31
2023-01-29T12:03:35.991Z,101270.97
2023-01-29T12:04:42.246Z,101276.41
2023-01-29T12:05:55.240Z,101262.63
2023-01-29T12:06:58.263Z,101267.91
2023-01-29T12:08:02.552Z,101264.31
2023-01-29T12:09:11.494Z,101269.59
2023-01-29T12:10:35.770Z,101270.63
2023-01-29T12:11:38.467Z,101267.91
2023-01-29T12:12:47.003Z,101266.03
2023-01-29T12:13:55.870Z,101264.00
2023-01-29T12:15:16.911Z,101268.41
2023-01-29T12:16:25.727Z,101261.94
2023-01-29T12:17:33.872Z,101261.94
2023-01-29T12:18:50.678Z,101259.03
2023-01-29T12:19:58.927Z,101237.97
2023-01-29T12:21:10.683Z,101238.78
2023-01-29T12:22:43.146Z,101226.91
2023-01-29T12:24:07.916Z,101229.44
2023-01-29T12:25:25.336Z,101221.97
2023-01-29T12:26:35.451Z,101225.50
2023-01-29T12:28:09.320Z,101226.38
2023-01-29T12:29:25.861Z,101232.47
2023-01-29T12:30:46.067Z,101221.59
2023-01-29T12:31:59.928Z,101224.13
2023-01-29T12:33:41.410Z,101218.53
2023-01-29T12:34:54.310Z,101217.50
2023-01-29T12:36:08.753Z,101214.78
2023-01-29T12:37:38.580Z,101205.59
2023-01-29T12:38:44.902Z,101208.31
2023-01-29T12:39:47.608Z,101215.47
2023-01-29T12:40:58.723Z,101206.28
2023-01-29T12:42:11.027Z,101209.66
2023-01-29T12:43:26.335Z,101209.66
2023-01-29T12:44:46.568Z,101210.50
2023-01-29T12:45:54.863Z,101220.19
2023-01-29T12:47:05.543Z,101215.59
2023-01-29T12:48:16.703Z,101218.13
2023-01-29T12:49:24.498Z,101212.69
2023-01-29T12:50:33.079Z,101214.41
2023-01-29T12:51:40.804Z,101217.97
2023-01-29T12:52:48.032Z,101214.22
2023-01-29T12:53:59.603Z,101206.72
2023-01-29T12:55:09.241Z,101205.72
2023-01-29T12:56:18.273Z,101197.34
2023-01-29T12:57:27.082Z,101194.44
2023-01-29T12:59:05.158Z,101199.72
2023-01-29T13:00:14.752Z,101203.31
2023-01-29T13:01:36.582Z,101203.97
2023-01-29T13:02:54.943Z,101205.84
2023-01-29T13:04:15.800Z,101206.50
2023-01-29T13:05:26.486Z,101196.66
2023-01-29T13:06:46.157Z,101198.81
2023-01-29T13:07:54.684Z,101198.81
2023-01-29T13:09:17.555Z,101199.69
2023-01-29T13:10:28.373Z,101193.19